sensor_id;sensor_type;location;lat;lon;timestamp;pressure;altitude;pressure_sealevel;temperature;humidity
25084;BME280;13075;55.682;37.564;2023-03-03T00:01:15;98114.09;;;5.33;100.00
25084;BME280;13075;55.682;37.564;2023-03-03T00:03:41;98099.00;;;5.21;100.00
25084;BME280;13075;55.682;37.564;2023-03-03T00:06:09;98110.72;;;4.85;100.00
25084;BME280;13075;55.682;37.564;2023-03-03T00:08:36;98089.59;;;5.12;100.00
25084;BME280;13075;55.682;37.564;2023-03-03T00:11:02;98093.09;;;5.19;100.00
25084;BME280;13075;55.682;37.564;2023-03-03T00:13:31;98098.22;;;5.59;100.00
25084;BME280;13075;55.682;37.564;2023-03-03T00:18:41;98091.09;;;5.47;100.00
25084;BME280;13075;55.682;37.564;2023-03-03T00:21:30;98097.19;;;5.67;100.00
25084;BME280;13075;55.682;37.564;2023-03-03T00:27:00;98086.59;;;5.67;100.00
25084;BME280;13075;55.682;37.564;2023-03-03T00:29:40;98086.56;;;5.41;100.00
25084;BME280;13075;55.682;37.564;2023-03-03T00:34:52;98081.91;;;5.62;100.00
25084;BME280;13075;55.682;37.564;2023-03-03T00:37:25;98083.72;;;5.82;100.00
25084;BME280;13075;55.682;37.564;2023-03-03T00:39:58;98072.09;;;5.50;100.00
25084;BME280;13075;55.682;37.564;2023-03-03T00:42:27;98064.97;;;5.90;100.00
25084;BME280;13075;55.682;37.564;2023-03-03T00:44:57;98059.22;;;5.99;100.00
25084;BME280;13075;55.682;37.564;2023-03-03T00:47:39;98052.69;;;5.82;100.00
25084;BME280;13075;55.682;37.564;2023-03-03T00:52:38;98042.91;;;5.96;100.00
25084;BME280;13075;55.682;37.564;2023-03-03T00:55:05;98047.78;;;5.79;100.00
25084;BME280;13075;55.682;37.564;2023-03-03T00:57:32;98038.41;;;6.03;100.00
25084;BME280;13075;55.682;37.564;2023-03-03T00:59:58;98034.31;;;5.94;100.00
25084;BME280;13075;55.682;37.564;2023-03-03T01:02:23;98042.72;;;5.78;100.00
25084;BME280;13075;55.682;37.564;2023-03-03T01:04:51;98038.63;;;5.95;100.00
25084;BME280;13075;55.682;37.564;2023-03-03T01:07:17;98037.81;;;5.88;100.00
25084;BME280;13075;55.682;37.564;2023-03-03T01:09:43;98037.00;;;5.81;100.00
25084;BME280;13075;55.682;37.564;2023-03-03T01:12:09;98031.44;;;6.02;100.00
25084;BME280;13075;55.682;37.564;2023-03-03T01:14:35;98025.78;;;5.85;100.00
25084;BME280;13075;55.682;37.564;2023-03-03T01:17:02;98031.50;;;5.62;100.00
25084;BME280;13075;55.682;37.564;2023-03-03T01:19:27;98034.75;;;5.32;100.00
25084;BME280;13075;55.682;37.564;2023-03-03T01:21:53;98020.69;;;5.18;100.00
25084;BME280;13075;55.682;37.564;2023-03-03T01:24:19;98027.81;;;5.37;100.00
25084;BME280;13075;55.682;37.564;2023-03-03T01:26:45;98025.16;;;5.63;100.00
25084;BME280;13075;55.682;37.564;2023-03-03T01:29:11;98013.75;;;5.43;100.00
25084;BME280;13075;55.682;37.564;2023-03-03T01:31:36;98014.16;;;5.60;100.00
25084;BME280;13075;55.682;37.564;2023-03-03T01:34:02;98014.97;;;5.54;100.00
25084;BME280;13075;55.682;37.564;2023-03-03T01:36:28;98020.06;;;5.42;100.00
25084;BME280;13075;55.682;37.564;2023-03-03T01:38:54;98010.06;;;5.57;100.00
25084;BME280;13075;55.682;37.564;2023-03-03T01:41:20;98015.38;;;5.64;100.00
25084;BME280;13075;55.682;37.564;2023-03-03T01:43:48;98009.88;;;5.59;100.00
25084;BME280;13075;55.682;37.564;2023-03-03T01:48:51;98012.94;;;5.30;100.00
25084;BME280;13075;55.682;37.564;2023-03-03T01:51:27;98009.47;;;5.62;100.00
25084;BME280;13075;55.682;37.564;2023-03-03T01:53:59;98022.34;;;5.39;100.00
25084;BME280;13075;55.682;37.564;2023-03-03T01:56:25;98014.97;;;5.41;100.00
25084;BME280;13075;55.682;37.564;2023-03-03T01:58:52;98013.75;;;5.43;100.00
25084;BME280;13075;55.682;37.564;2023-03-03T02:01:25;98005.81;;;5.30;100.00
25084;BME280;13075;55.682;37.564;2023-03-03T02:03:52;98000.91;;;5.34;100.00
25084;BME280;13075;55.682;37.564;2023-03-03T02:06:22;98009.25;;;5.50;100.00
25084;BME280;13075;55.682;37.564;2023-03-03T02:09:06;97988.44;;;5.67;100.00
25084;BME280;13075;55.682;37.564;2023-03-03T02:11:36;98000.69;;;5.48;100.00
25084;BME280;13075;55.682;37.564;2023-03-03T02:14:02;98000.91;;;5.47;100.00
25084;BME280;13075;55.682;37.564;2023-03-03T02:16:27;98001.53;;;5.36;100.00
25084;BME280;13075;55.682;37.564;2023-03-03T02:18:53;97993.56;;;5.49;100.00
25084;BME280;13075;55.682;37.564;2023-03-03T02:21:23;97988.03;;;5.70;100.00
25084;BME280;13075;55.682;37.564;2023-03-03T02:26:24;97978.25;;;5.51;100.00
25084;BME280;13075;55.682;37.564;2023-03-03T02:28:55;97963.31;;;5.76;100.00
25084;BME280;13075;55.682;37.564;2023-03-03T02:31:24;97973.44;;;6.12;100.00
25084;BME280;13075;55.682;37.564;2023-03-03T02:33:51;97951.50;;;5.85;100.00
25084;BME280;13075;55.682;37.564;2023-03-03T02:36:29;97956.94;;;5.97;100.00
25084;BME280;13075;55.682;37.564;2023-03-03T02:46:37;97951.47;;;5.79;100.00
25084;BME280;13075;55.682;37.564;2023-03-03T02:49:05;97946.03;;;5.47;100.00
25084;BME280;13075;55.682;37.564;2023-03-03T02:51:32;97945.66;;;5.31;100.00
25084;BME280;13075;55.682;37.564;2023-03-03T02:53:57;97932.38;;;5.44;100.00
25084;BME280;13075;55.682;37.564;2023-03-03T02:56:26;97937.63;;;5.63;100.00
25084;BME280;13075;55.682;37.564;2023-03-03T02:58:51;97939.91;;;5.60;100.00
25084;BME280;13075;55.682;37.564;2023-03-03T03:01:18;97935.34;;;5.93;100.00
25084;BME280;13075;55.682;37.564;2023-03-03T03:03:45;97931.75;;;5.48;100.00
25084;BME280;13075;55.682;37.564;2023-03-03T03:06:12;97935.16;;;5.88;100.00
25084;BME280;13075;55.682;37.564;2023-03-03T03:08:39;97936.78;;;5.76;100.00
25084;BME280;13075;55.682;37.564;2023-03-03T03:11:05;97934.34;;;5.88;100.00
25084;BME280;13075;55.682;37.564;2023-03-03T03:13:32;97934.75;;;5.85;100.00
25084;BME280;13075;55.682;37.564;2023-03-03T03:15:58;97929.47;;;5.58;100.00
25084;BME280;13075;55.682;37.564;2023-03-03T03:18:25;97920.09;;;5.62;100.00
25084;BME280;13075;55.682;37.564;2023-03-03T03:20:53;97923.34;;;5.64;100.00
25084;BME280;13075;55.682;37.564;2023-03-03T03:23:19;97927.97;;;5.89;100.00
25084;BME280;13075;55.682;37.564;2023-03-03T03:25:48;97921.53;;;5.65;100.00
25084;BME280;13075;55.682;37.564;2023-03-03T03:28:21;97925.78;;;5.73;100.00
25084;BME280;13075;55.682;37.564;2023-03-03T03:30:46;97910.22;;;5.96;100.00
25084;BME280;13075;55.682;37.564;2023-03-03T03:33:12;97928.00;;;5.82;100.00
25084;BME280;13075;55.682;37.564;2023-03-03T03:35:38;97924.41;;;5.57;100.00
25084;BME280;13075;55.682;37.564;2023-03-03T03:38:11;97926.63;;;5.53;100.00
25084;BME280;13075;55.682;37.564;2023-03-03T03:40:37;97919.69;;;5.59;100.00
25084;BME280;13075;55.682;37.564;2023-03-03T03:43:03;97914.78;;;5.62;100.00
25084;BME280;13075;55.682;37.564;2023-03-03T03:45:29;97920.97;;;5.30;100.00
25084;BME280;13075;55.682;37.564;2023-03-03T03:47:56;97919.31;;;5.49;100.00
25084;BME280;13075;55.682;37.564;2023-03-03T03:50:22;97917.28;;;5.44;100.00
25084;BME280;13075;55.682;37.564;2023-03-03T03:52:47;97924.63;;;5.29;100.00
25084;BME280;13075;55.682;37.564;2023-03-03T03:55:13;97911.72;;;5.65;100.00
25084;BME280;13075;55.682;37.564;2023-03-03T03:57:40;97911.31;;;5.62;100.00
25084;BME280;13075;55.682;37.564;2023-03-03T04:00:08;97913.16;;;5.61;100.00
25084;BME280;13075;55.682;37.564;2023-03-03T04:02:39;97907.44;;;5.64;100.00
25084;BME280;13075;55.682;37.564;2023-03-03T04:05:07;97901.09;;;5.72;100.00
25084;BME280;13075;55.682;37.564;2023-03-03T04:07:33;97895.38;;;5.75;100.00
25084;BME280;13075;55.682;37.564;2023-03-03T04:10:00;97904.81;;;5.51;100.00
25084;BME280;13075;55.682;37.564;2023-03-03T04:12:27;97897.97;;;5.82;100.00
25084;BME280;13075;55.682;37.564;2023-03-03T04:14:53;97895.41;;;5.62;100.00
25084;BME280;13075;55.682;37.564;2023-03-03T04:17:22;97891.72;;;5.63;100.00
25084;BME280;13075;55.682;37.564;2023-03-03T04:19:51;97890.34;;;5.47;100.00
25084;BME280;13075;55.682;37.564;2023-03-03T04:22:17;97895.56;;;5.80;100.00
25084;BME280;13075;55.682;37.564;2023-03-03T04:24:44;97893.97;;;5.66;100.00
25084;BME280;13075;55.682;37.564;2023-03-03T04:27:13;97888.19;;;5.76;100.00
25084;BME280;13075;55.682;37.564;2023-03-03T04:29:40;97889.59;;;5.14;100.00
25084;BME280;13075;55.682;37.564;2023-03-03T04:32:07;97897.50;;;5.40;100.00
25084;BME280;13075;55.682;37.564;2023-03-03T04:34:32;97889.53;;;5.47;100.00
25084;BME280;13075;55.682;37.564;2023-03-03T04:36:58;97890.84;;;5.82;100.00
25084;BME280;13075;55.682;37.564;2023-03-03T04:39:24;97901.88;;;5.79;100.00
25084;BME280;13075;55.682;37.564;2023-03-03T04:41:51;97894.78;;;5.66;100.00
25084;BME280;13075;55.682;37.564;2023-03-03T04:44:17;97889.84;;;5.83;100.00
25084;BME280;13075;55.682;37.564;2023-03-03T04:46:43;97892.88;;;5.16;100.00
25084;BME280;13075;55.682;37.564;2023-03-03T04:49:10;97903.63;;;5.28;100.00
25084;BME280;13075;55.682;37.564;2023-03-03T04:51:35;97892.38;;;5.52;100.00
25084;BME280;13075;55.682;37.564;2023-03-03T04:54:01;97878.09;;;5.53;100.00
25084;BME280;13075;55.682;37.564;2023-03-03T04:56:30;97891.84;;;5.24;100.00
25084;BME280;13075;55.682;37.564;2023-03-03T04:58:56;97890.25;;;5.74;100.00
25084;BME280;13075;55.682;37.564;2023-03-03T05:01:22;97881.88;;;5.77;100.00
25084;BME280;13075;55.682;37.564;2023-03-03T05:03:48;97885.47;;;5.38;100.00
25084;BME280;13075;55.682;37.564;2023-03-03T05:06:14;97892.72;;;5.75;100.00
25084;BME280;13075;55.682;37.564;2023-03-03T05:08:41;97899.75;;;5.30;100.00
25084;BME280;13075;55.682;37.564;2023-03-03T05:11:07;97894.66;;;5.35;100.00
25084;BME280;13075;55.682;37.564;2023-03-03T05:13:33;97893.19;;;5.46;100.00
25084;BME280;13075;55.682;37.564;2023-03-03T05:15:58;97895.88;;;5.33;100.00
25084;BME280;13075;55.682;37.564;2023-03-03T05:18:25;97895.19;;;5.70;100.00
25084;BME280;13075;55.682;37.564;2023-03-03T05:20:51;97897.47;;;5.60;100.00
25084;BME280;13075;55.682;37.564;2023-03-03T05:23:17;97887.53;;;6.00;100.00
25084;BME280;13075;55.682;37.564;2023-03-03T05:25:44;97902.06;;;5.84;100.00
25084;BME280;13075;55.682;37.564;2023-03-03T05:28:11;97899.66;;;5.70;100.00
25084;BME280;13075;55.682;37.564;2023-03-03T05:30:37;97898.56;;;6.03;100.00
25084;BME280;13075;55.682;37.564;2023-03-03T05:33:03;97896.25;;;6.07;100.00
25084;BME280;13075;55.682;37.564;2023-03-03T05:35:29;97888.38;;;5.94;100.00
25084;BME280;13075;55.682;37.564;2023-03-03T05:37:55;97899.63;;;5.83;100.00
25084;BME280;13075;55.682;37.564;2023-03-03T05:40:26;97889.28;;;6.19;100.00
25084;BME280;13075;55.682;37.564;2023-03-03T05:42:51;97889.22;;;6.25;100.00
25084;BME280;13075;55.682;37.564;2023-03-03T05:45:18;97896.25;;;6.13;100.00
25084;BME280;13075;55.682;37.564;2023-03-03T05:47:51;97893.78;;;6.12;100.00
25084;BME280;13075;55.682;37.564;2023-03-03T05:50:18;97885.81;;;6.18;100.00
25084;BME280;13075;55.682;37.564;2023-03-03T05:52:46;97895.13;;;5.90;100.00
25084;BME280;13075;55.682;37.564;2023-03-03T05:55:12;97891.84;;;5.94;100.00
25084;BME280;13075;55.682;37.564;2023-03-03T05:57:38;97900.19;;;5.98;100.00
25084;BME280;13075;55.682;37.564;2023-03-03T06:00:05;97900.41;;;5.96;100.00
25084;BME280;13075;55.682;37.564;2023-03-03T06:02:38;97887.56;;;6.31;100.00
25084;BME280;13075;55.682;37.564;2023-03-03T06:05:04;97895.28;;;6.39;100.00
25084;BME280;13075;55.682;37.564;2023-03-03T06:07:29;97896.38;;;6.63;100.00
25084;BME280;13075;55.682;37.564;2023-03-03T06:09:55;97896.31;;;6.38;100.00
25084;BME280;13075;55.682;37.564;2023-03-03T06:12:22;97898.09;;;6.13;100.00
25084;BME280;13075;55.682;37.564;2023-03-03T06:14:47;97906.25;;;6.49;100.00
25084;BME280;13075;55.682;37.564;2023-03-03T06:17:13;97903.84;;;6.41;100.00
25084;BME280;13075;55.682;37.564;2023-03-03T06:19:39;97911.81;;;6.72;100.00
25084;BME280;13075;55.682;37.564;2023-03-03T06:22:06;97906.38;;;6.30;100.00
25084;BME280;13075;55.682;37.564;2023-03-03T06:24:32;97905.38;;;6.24;100.00
25084;BME280;13075;55.682;37.564;2023-03-03T06:26:58;97910.06;;;6.60;100.00
25084;BME280;13075;55.682;37.564;2023-03-03T06:29:24;97897.19;;;6.25;100.00
25084;BME280;13075;55.682;37.564;2023-03-03T06:31:49;97901.88;;;6.61;100.00
25084;BME280;13075;55.682;37.564;2023-03-03T06:34:15;97900.63;;;6.33;100.00
25084;BME280;13075;55.682;37.564;2023-03-03T06:36:41;97903.44;;;6.69;100.00
25084;BME280;13075;55.682;37.564;2023-03-03T06:39:06;97897.38;;;6.86;100.00
25084;BME280;13075;55.682;37.564;2023-03-03T06:41:32;97912.69;;;7.16;100.00
25084;BME280;13075;55.682;37.564;2023-03-03T06:43:58;97916.13;;;7.41;100.00
25084;BME280;13075;55.682;37.564;2023-03-03T06:46:25;97920.91;;;7.14;100.00
25084;BME280;13075;55.682;37.564;2023-03-03T06:48:51;97898.88;;;7.50;100.00
25084;BME280;13075;55.682;37.564;2023-03-03T06:51:31;97898.34;;;7.60;100.00
25084;BME280;13075;55.682;37.564;2023-03-03T06:54:09;97912.19;;;7.68;100.00
25084;BME280;13075;55.682;37.564;2023-03-03T06:56:36;97913.06;;;7.62;100.00
25084;BME280;13075;55.682;37.564;2023-03-03T06:59:09;97915.97;;;7.36;100.00
25084;BME280;13075;55.682;37.564;2023-03-03T07:01:36;97913.22;;;7.67;100.00
25084;BME280;13075;55.682;37.564;2023-03-03T07:04:32;97907.69;;;7.87;100.00
25084;BME280;13075;55.682;37.564;2023-03-03T07:07:15;97909.44;;;7.57;100.00
25084;BME280;13075;55.682;37.564;2023-03-03T07:09:43;97912.78;;;7.70;100.00
25084;BME280;13075;55.682;37.564;2023-03-03T07:12:12;97910.09;;;7.70;100.00
25084;BME280;13075;55.682;37.564;2023-03-03T07:14:46;97911.06;;;7.58;100.00
25084;BME280;13075;55.682;37.564;2023-03-03T07:17:18;97916.78;;;7.61;100.00
25084;BME280;13075;55.682;37.564;2023-03-03T07:19:44;97917.25;;;7.51;100.00
25084;BME280;13075;55.682;37.564;2023-03-03T07:22:19;97911.50;;;7.54;100.00
25084;BME280;13075;55.682;37.564;2023-03-03T07:24:48;97914.72;;;7.38;100.00
25084;BME280;13075;55.682;37.564;2023-03-03T07:29:48;97915.13;;;7.60;100.00
25084;BME280;13075;55.682;37.564;2023-03-03T07:32:25;97917.66;;;7.73;100.00
25084;BME280;13075;55.682;37.564;2023-03-03T07:34:54;97915.38;;;7.59;100.00
25084;BME280;13075;55.682;37.564;2023-03-03T07:37:26;97926.00;;;7.59;100.00
25084;BME280;13075;55.682;37.564;2023-03-03T07:39:54;97919.88;;;7.58;100.00
25084;BME280;13075;55.682;37.564;2023-03-03T07:45:27;97919.72;;;7.53;100.00
25084;BME280;13075;55.682;37.564;2023-03-03T07:48:00;97919.78;;;7.65;100.00
25084;BME280;13075;55.682;37.564;2023-03-03T07:50:33;97922.69;;;7.63;100.00
25084;BME280;13075;55.682;37.564;2023-03-03T07:53:00;97926.31;;;7.69;100.00
25084;BME280;13075;55.682;37.564;2023-03-03T07:55:36;97920.47;;;7.96;98.56
25084;BME280;13075;55.682;37.564;2023-03-03T08:03:23;97922.59;;;7.88;97.08
25084;BME280;13075;55.682;37.564;2023-03-03T08:05:49;97926.97;;;7.82;95.13
25084;BME280;13075;55.682;37.564;2023-03-03T08:10:52;97920.06;;;8.11;95.34
25084;BME280;13075;55.682;37.564;2023-03-03T08:13:20;97920.22;;;8.34;90.61
25084;BME280;13075;55.682;37.564;2023-03-03T08:15:49;97928.59;;;7.83;92.21
25084;BME280;13075;55.682;37.564;2023-03-03T08:18:33;97925.78;;;8.33;89.26
25084;BME280;13075;55.682;37.564;2023-03-03T08:21:02;97923.28;;;8.49;88.75
25084;BME280;13075;55.682;37.564;2023-03-03T08:23:28;97923.47;;;8.66;85.40
25084;BME280;13075;55.682;37.564;2023-03-03T08:25:54;97922.50;;;9.02;82.58
25084;BME280;13075;55.682;37.564;2023-03-03T08:28:20;97935.69;;;8.85;82.11
25084;BME280;13075;55.682;37.564;2023-03-03T08:30:46;97922.06;;;8.34;86.15
25084;BME280;13075;55.682;37.564;2023-03-03T08:33:13;97923.75;;;8.88;83.69
25084;BME280;13075;55.682;37.564;2023-03-03T08:35:40;97935.47;;;8.98;85.13
25084;BME280;13075;55.682;37.564;2023-03-03T08:38:07;97934.28;;;8.23;90.85
25084;BME280;13075;55.682;37.564;2023-03-03T08:40:33;97930.66;;;8.36;96.26
25084;BME280;13075;55.682;37.564;2023-03-03T08:42:59;97932.09;;;8.80;91.31
25084;BME280;13075;55.682;37.564;2023-03-03T08:45:26;97927.78;;;8.78;92.91
25084;BME280;13075;55.682;37.564;2023-03-03T08:47:52;97938.69;;;8.47;92.75
25084;BME280;13075;55.682;37.564;2023-03-03T08:50:18;97943.84;;;8.60;92.72
25084;BME280;13075;55.682;37.564;2023-03-03T08:52:44;97937.66;;;8.48;97.16
25084;BME280;13075;55.682;37.564;2023-03-03T08:55:10;97953.09;;;8.28;99.04
25084;BME280;13075;55.682;37.564;2023-03-03T08:57:36;97941.66;;;8.39;98.06
25084;BME280;13075;55.682;37.564;2023-03-03T09:00:05;97950.44;;;8.28;96.52
25084;BME280;13075;55.682;37.564;2023-03-03T09:02:31;97947.19;;;8.56;95.63
25084;BME280;13075;55.682;37.564;2023-03-03T09:04:56;97941.50;;;8.94;93.54
25084;BME280;13075;55.682;37.564;2023-03-03T09:07:22;97951.66;;;8.73;95.77
25084;BME280;13075;55.682;37.564;2023-03-03T09:09:48;97947.59;;;8.71;91.57
25084;BME280;13075;55.682;37.564;2023-03-03T09:12:16;97949.94;;;8.79;93.00
25084;BME280;13075;55.682;37.564;2023-03-03T09:14:43;97950.03;;;8.25;95.44
25084;BME280;13075;55.682;37.564;2023-03-03T09:17:22;97951.72;;;8.19;93.84
25084;BME280;13075;55.682;37.564;2023-03-03T09:19:49;97952.53;;;8.67;90.66
25084;BME280;13075;55.682;37.564;2023-03-03T09:22:22;97952.75;;;8.96;90.64
25084;BME280;13075;55.682;37.564;2023-03-03T09:24:51;97948.84;;;8.68;87.71
25084;BME280;13075;55.682;37.564;2023-03-03T09:27:33;97944.44;;;9.27;86.52
25084;BME280;13075;55.682;37.564;2023-03-03T09:30:04;97950.44;;;8.99;86.60
25084;BME280;13075;55.682;37.564;2023-03-03T09:32:38;97937.69;;;8.60;90.70
25084;BME280;13075;55.682;37.564;2023-03-03T09:37:52;97941.03;;;8.55;91.86
25084;BME280;13075;55.682;37.564;2023-03-03T09:45:35;97944.03;;;8.77;90.43
25084;BME280;13075;55.682;37.564;2023-03-03T09:56:18;97942.16;;;8.48;94.79
25084;BME280;13075;55.682;37.564;2023-03-03T10:01:42;97946.63;;;8.65;89.16
25084;BME280;13075;55.682;37.564;2023-03-03T10:04:37;97944.38;;;8.51;90.18
25084;BME280;13075;55.682;37.564;2023-03-03T10:12:26;97953.22;;;7.97;92.14
25084;BME280;13075;55.682;37.564;2023-03-03T10:15:19;97941.63;;;8.57;89.32
25084;BME280;13075;55.682;37.564;2023-03-03T10:17:53;97948.28;;;8.78;87.59
25084;BME280;13075;55.682;37.564;2023-03-03T10:32:28;97938.84;;;10.21;81.94
25084;BME280;13075;55.682;37.564;2023-03-03T10:35:13;97927.09;;;9.99;80.31
25084;BME280;13075;55.682;37.564;2023-03-03T10:41:06;97930.44;;;9.31;79.33
25084;BME280;13075;55.682;37.564;2023-03-03T10:49:18;97934.13;;;9.54;79.42
25084;BME280;13075;55.682;37.564;2023-03-03T11:05:31;97947.50;;;8.48;87.99
25084;BME280;13075;55.682;37.564;2023-03-03T11:08:27;97953.75;;;8.83;84.02
25084;BME280;13075;55.682;37.564;2023-03-03T11:11:12;97951.91;;;9.36;79.63
25084;BME280;13075;55.682;37.564;2023-03-03T11:13:54;97955.84;;;9.34;79.41
25084;BME280;13075;55.682;37.564;2023-03-03T11:16:33;97957.66;;;9.10;80.84
25084;BME280;13075;55.682;37.564;2023-03-03T11:24:58;97946.06;;;9.63;79.35
25084;BME280;13075;55.682;37.564;2023-03-03T11:27:38;97953.72;;;9.13;80.06
25084;BME280;13075;55.682;37.564;2023-03-03T11:36:20;97957.03;;;8.55;83.36
25084;BME280;13075;55.682;37.564;2023-03-03T11:39:17;97957.81;;;8.86;82.47
25084;BME280;13075;55.682;37.564;2023-03-03T11:42:29;97958.38;;;8.76;81.01
25084;BME280;13075;55.682;37.564;2023-03-03T11:47:16;97971.72;;;7.92;92.70
25084;BME280;13075;55.682;37.564;2023-03-03T11:50:20;97955.94;;;8.74;83.50
25084;BME280;13075;55.682;37.564;2023-03-03T11:53:23;97954.28;;;9.03;80.14
25084;BME280;13075;55.682;37.564;2023-03-03T11:55:51;97959.44;;;8.27;84.61
25084;BME280;13075;55.682;37.564;2023-03-03T11:58:26;97960.28;;;8.21;81.38
25084;BME280;13075;55.682;37.564;2023-03-03T12:09:30;97962.88;;;9.05;77.04
25084;BME280;13075;55.682;37.564;2023-03-03T12:12:09;97972.22;;;8.96;76.52
25084;BME280;13075;55.682;37.564;2023-03-03T12:20:32;97974.28;;;8.53;83.29
25084;BME280;13075;55.682;37.564;2023-03-03T12:26:03;97962.38;;;8.97;80.30
25084;BME280;13075;55.682;37.564;2023-03-03T12:28:37;97964.53;;;8.88;80.06
25084;BME280;13075;55.682;37.564;2023-03-03T12:31:16;97960.66;;;8.61;82.40
25084;BME280;13075;55.682;37.564;2023-03-03T12:33:58;97966.13;;;8.77;81.68
25084;BME280;13075;55.682;37.564;2023-03-03T12:36:33;97967.00;;;8.60;81.63
25084;BME280;13075;55.682;37.564;2023-03-03T12:47:38;97973.56;;;8.09;84.67
25084;BME280;13075;55.682;37.564;2023-03-03T12:58:24;97972.88;;;7.96;88.85
25084;BME280;13075;55.682;37.564;2023-03-03T13:03:55;97978.59;;;7.14;90.74
25084;BME280;13075;55.682;37.564;2023-03-03T13:15:26;97983.41;;;6.99;100.00
25084;BME280;13075;55.682;37.564;2023-03-03T13:23:42;97978.34;;;7.83;81.44
25084;BME280;13075;55.682;37.564;2023-03-03T13:26:27;97974.44;;;8.03;81.68
25084;BME280;13075;55.682;37.564;2023-03-03T13:31:34;97964.31;;;7.94;80.27
25084;BME280;13075;55.682;37.564;2023-03-03T13:34:02;97973.47;;;7.98;78.83
25084;BME280;13075;55.682;37.564;2023-03-03T13:37:04;97967.38;;;7.97;79.37
25084;BME280;13075;55.682;37.564;2023-03-03T13:39:26;97969.25;;;7.72;78.01
25084;BME280;13075;55.682;37.564;2023-03-03T13:42:00;97960.00;;;7.93;76.84
25084;BME280;13075;55.682;37.564;2023-03-03T13:44:35;97956.47;;;7.81;77.31
25084;BME280;13075;55.682;37.564;2023-03-03T13:47:17;97958.13;;;7.82;73.85
25084;BME280;13075;55.682;37.564;2023-03-03T13:50:26;97961.81;;;7.99;74.79
25084;BME280;13075;55.682;37.564;2023-03-03T13:55:56;97957.06;;;7.83;76.09
25084;BME280;13075;55.682;37.564;2023-03-03T13:58:28;97957.34;;;7.93;75.57
25084;BME280;13075;55.682;37.564;2023-03-03T14:01:07;97957.44;;;8.04;74.82
25084;BME280;13075;55.682;37.564;2023-03-03T14:06:18;97967.84;;;8.06;74.74
25084;BME280;13075;55.682;37.564;2023-03-03T14:17:14;97969.41;;;7.34;76.00
25084;BME280;13075;55.682;37.564;2023-03-03T14:19:51;97976.19;;;7.30;76.24
25084;BME280;13075;55.682;37.564;2023-03-03T14:22:41;97970.44;;;7.33;76.47
25084;BME280;13075;55.682;37.564;2023-03-03T14:25:11;97969.28;;;7.23;76.30
25084;BME280;13075;55.682;37.564;2023-03-03T14:30:40;97970.75;;;7.43;76.19
25084;BME280;13075;55.682;37.564;2023-03-03T14:36:00;97981.13;;;7.51;74.57
25084;BME280;13075;55.682;37.564;2023-03-03T14:43:40;97976.13;;;7.37;74.54
25084;BME280;13075;55.682;37.564;2023-03-03T14:46:37;97975.75;;;7.33;74.98
25084;BME280;13075;55.682;37.564;2023-03-03T14:49:13;97978.41;;;7.09;76.54
25084;BME280;13075;55.682;37.564;2023-03-03T14:51:45;97970.03;;;7.05;76.57
25084;BME280;13075;55.682;37.564;2023-03-03T14:54:24;97981.78;;;7.22;75.12
25084;BME280;13075;55.682;37.564;2023-03-03T14:59:24;97973.84;;;7.16;76.25
25084;BME280;13075;55.682;37.564;2023-03-03T15:04:41;97984.50;;;7.40;73.94
25084;BME280;13075;55.682;37.564;2023-03-03T15:07:30;97983.09;;;7.38;74.99
25084;BME280;13075;55.682;37.564;2023-03-03T15:09:57;97985.25;;;7.23;75.12
25084;BME280;13075;55.682;37.564;2023-03-03T15:12:24;97987.03;;;7.29;77.33
25084;BME280;13075;55.682;37.564;2023-03-03T15:26:26;97992.19;;;7.24;74.64
25084;BME280;13075;55.682;37.564;2023-03-03T15:31:51;97992.13;;;7.30;75.57
25084;BME280;13075;55.682;37.564;2023-03-03T15:34:37;98002.44;;;7.20;76.01
25084;BME280;13075;55.682;37.564;2023-03-03T15:40:30;97999.34;;;6.99;76.13
25084;BME280;13075;55.682;37.564;2023-03-03T15:48:08;98006.53;;;7.23;73.79
25084;BME280;13075;55.682;37.564;2023-03-03T15:53:46;97998.06;;;7.32;74.24
25084;BME280;13075;55.682;37.564;2023-03-03T15:56:24;97990.91;;;7.33;72.31
25084;BME280;13075;55.682;37.564;2023-03-03T16:01:33;97996.38;;;7.13;74.52
25084;BME280;13075;55.682;37.564;2023-03-03T16:04:20;97997.91;;;7.52;72.41
25084;BME280;13075;55.682;37.564;2023-03-03T16:12:40;97997.03;;;7.33;74.69
25084;BME280;13075;55.682;37.564;2023-03-03T16:18:00;97997.78;;;7.16;75.93
25084;BME280;13075;55.682;37.564;2023-03-03T16:20:48;98001.22;;;7.47;73.63
25084;BME280;13075;55.682;37.564;2023-03-03T16:24:04;97995.53;;;7.19;75.85
25084;BME280;13075;55.682;37.564;2023-03-03T16:32:07;97988.47;;;7.07;76.15
25084;BME280;13075;55.682;37.564;2023-03-03T16:34:46;97995.44;;;7.26;73.93
25084;BME280;13075;55.682;37.564;2023-03-03T16:37:39;97992.03;;;6.94;74.54
25084;BME280;13075;55.682;37.564;2023-03-03T16:40:13;97989.88;;;7.34;73.87
25084;BME280;13075;55.682;37.564;2023-03-03T16:42:43;97993.22;;;6.98;73.50
25084;BME280;13075;55.682;37.564;2023-03-03T16:45:22;97990.53;;;7.29;74.24
25084;BME280;13075;55.682;37.564;2023-03-03T16:53:03;97996.28;;;7.26;73.19
25084;BME280;13075;55.682;37.564;2023-03-03T16:58:42;97987.03;;;6.73;74.81
25084;BME280;13075;55.682;37.564;2023-03-03T17:07:04;97982.91;;;7.08;75.45
25084;BME280;13075;55.682;37.564;2023-03-03T17:09:50;97986.25;;;6.97;74.44
25084;BME280;13075;55.682;37.564;2023-03-03T17:17:42;97993.84;;;6.62;76.14
25084;BME280;13075;55.682;37.564;2023-03-03T17:29:08;97991.34;;;6.30;79.33
25084;BME280;13075;55.682;37.564;2023-03-03T17:45:38;97997.09;;;6.20;78.62
25084;BME280;13075;55.682;37.564;2023-03-03T17:48:14;97984.06;;;6.56;77.83
25084;BME280;13075;55.682;37.564;2023-03-03T17:53:47;97992.31;;;6.42;78.52
25084;BME280;13075;55.682;37.564;2023-03-03T18:15:08;97987.09;;;6.15;84.98
25084;BME280;13075;55.682;37.564;2023-03-03T18:18:04;97983.59;;;6.28;84.56